Time;durP1;ratioP1;P1;durP2;ratioP2;P2;SDS_P1;SDS_P2;PMS_P1;PMS_P2;Temp;Humidity;BMP_temperature;BMP_pressure;BME280_temperature;BME280_humidity;BME280_pressure;Samples;Min_cycle;Max_cycle;Signal;HPM_P1;HPM_P2
2022/09/18 00:00:59;;;;;;;3.67;0.30;;;11.10;99.90;;;;;;4996422;28;20423;-91
2022/09/18 00:03:29;;;;;;;1.20;0.20;;;11.10;99.90;;;;;;4995254;28;20424;-91
2022/09/18 00:05:55;;;;;;;3.20;0.50;;;11.10;99.90;;;;;;4994583;28;20478;-86
2022/09/18 00:08:20;;;;;;;5.67;0.73;;;11.00;99.90;;;;;;4994721;28;20432;-85
2022/09/18 00:10:46;;;;;;;2.10;0.33;;;11.00;99.90;;;;;;4995590;28;20226;-90
2022/09/18 00:13:13;;;;;;;0.93;0.20;;;10.90;99.90;;;;;;4996148;28;20205;-91
2022/09/18 00:15:39;;;;;;;2.60;0.40;;;10.80;99.90;;;;;;4995594;28;20283;-90
2022/09/18 00:18:05;;;;;;;4.43;0.30;;;10.80;99.90;;;;;;4994630;28;20453;-85
2022/09/18 00:20:37;;;;;;;1.90;0.23;;;10.70;99.90;;;;;;4995365;28;20417;-92
2022/09/18 00:23:03;;;;;;;3.03;0.30;;;10.60;99.90;;;;;;4995462;28;20451;-85
2022/09/18 00:25:30;;;;;;;1.70;0.40;;;10.50;99.90;;;;;;4994985;28;20499;-84
2022/09/18 00:27:56;;;;;;;3.80;0.27;;;10.50;99.90;;;;;;4994980;28;20164;-86
2022/09/18 00:30:21;;;;;;;3.37;0.30;;;10.40;99.90;;;;;;4994189;28;20427;-84
2022/09/18 00:32:47;;;;;;;5.53;0.60;;;10.40;99.90;;;;;;4995285;28;20245;-87
2022/09/18 00:35:12;;;;;;;1.63;0.37;;;10.40;99.90;;;;;;4995104;28;20173;-88
2022/09/18 00:37:38;;;;;;;5.73;0.47;;;10.40;99.90;;;;;;4995117;28;20175;-84
2022/09/18 00:40:04;;;;;;;3.13;0.40;;;10.40;99.90;;;;;;4994998;28;20169;-85
2022/09/18 00:42:29;;;;;;;1.90;0.20;;;10.40;99.90;;;;;;4995550;28;20195;-84
2022/09/18 00:44:55;;;;;;;3.80;0.37;;;10.40;99.90;;;;;;4994919;28;20931;-84
2022/09/18 00:47:35;;;;;;;2.30;0.80;;;10.50;99.90;;;;;;4994760;28;20193;-89
2022/09/18 00:50:12;;;;;;;4.60;0.23;;;10.50;99.90;;;;;;4993791;28;20688;-86
2022/09/18 00:52:50;;;;;;;4.17;0.33;;;10.60;99.90;;;;;;4994358;28;20526;-85
2022/09/18 00:55:22;;;;;;;2.93;0.47;;;10.70;99.90;;;;;;4993844;28;20502;-85
2022/09/18 00:57:53;;;;;;;6.50;0.50;;;10.80;99.90;;;;;;4994878;28;20876;-84
2022/09/18 01:00:19;;;;;;;2.00;0.70;;;10.80;99.90;;;;;;4993915;28;20774;-85
2022/09/18 01:02:45;;;;;;;1.30;0.20;;;10.80;99.90;;;;;;4995396;28;20471;-91
2022/09/18 01:05:13;;;;;;;3.70;0.40;;;10.80;99.90;;;;;;4994308;28;20570;-92
2022/09/18 01:08:03;;;;;;;2.83;0.30;;;10.90;99.90;;;;;;4993912;28;20856;-84
2022/09/18 01:10:35;;;;;;;4.20;0.50;;;10.80;99.90;;;;;;4993225;28;20423;-92
2022/09/18 01:13:09;;;;;;;3.00;0.60;;;10.90;99.90;;;;;;4993693;28;20920;-83
2022/09/18 01:15:38;;;;;;;1.53;0.30;;;10.80;99.90;;;;;;4995070;28;20409;-90
2022/09/18 01:18:34;;;;;;;2.67;1.07;;;10.80;99.90;;;;;;4994999;28;20413;-92
2022/09/18 01:21:09;;;;;;;3.77;0.20;;;10.80;99.90;;;;;;4994079;28;20418;-85
2022/09/18 01:24:02;;;;;;;4.57;0.50;;;10.80;99.90;;;;;;4993525;28;20768;-91
2022/09/18 01:26:45;;;;;;;6.53;0.50;;;10.80;99.90;;;;;;4993188;28;20477;-83
2022/09/18 01:29:19;;;;;;;4.80;0.60;;;10.80;99.90;;;;;;4994501;28;20420;-83
2022/09/18 01:31:53;;;;;;;1.20;0.30;;;10.80;99.90;;;;;;4993416;28;20419;-84
2022/09/18 01:34:34;;;;;;;0.97;0.20;;;10.70;99.90;;;;;;4992976;28;20412;-82
2022/09/18 01:37:21;;;;;;;5.77;0.83;;;10.70;99.90;;;;;;4993300;28;20425;-85
2022/09/18 01:40:00;;;;;;;3.97;0.37;;;10.70;99.90;;;;;;4994389;28;20790;-92
2022/09/18 01:42:28;;;;;;;3.27;0.20;;;10.70;99.90;;;;;;4994010;28;20805;-92
2022/09/18 01:44:56;;;;;;;2.93;0.57;;;10.60;99.90;;;;;;4994016;28;20415;-89
2022/09/18 01:47:27;;;;;;;5.03;0.40;;;10.60;99.90;;;;;;4993732;28;20795;-83
2022/09/18 01:50:03;;;;;;;1.33;0.20;;;10.50;99.90;;;;;;4993861;28;20469;-87
2022/09/18 01:52:37;;;;;;;1.83;0.20;;;10.50;99.90;;;;;;4994269;28;20784;-88
2022/09/18 01:55:10;;;;;;;2.90;0.20;;;10.40;99.90;;;;;;4993984;28;20961;-89
2022/09/18 01:57:45;;;;;;;0.60;0.20;;;10.30;99.90;;;;;;4993532;28;20424;-83
2022/09/18 02:00:12;;;;;;;3.50;0.50;;;10.20;99.90;;;;;;4993964;28;20407;-83
2022/09/18 02:02:45;;;;;;;4.47;0.93;;;10.10;99.90;;;;;;4993816;28;20480;-82
2022/09/18 02:05:18;;;;;;;4.40;0.43;;;10.10;99.90;;;;;;4993400;28;20466;-82
2022/09/18 02:07:58;;;;;;;4.17;0.40;;;10.00;99.90;;;;;;4994069;28;20425;-91
2022/09/18 02:10:27;;;;;;;1.63;0.20;;;9.90;99.90;;;;;;4997447;28;20416;-89
2022/09/18 02:12:55;;;;;;;3.17;0.40;;;9.90;99.90;;;;;;4996167;28;20436;-82
2022/09/18 02:15:25;;;;;;;1.73;0.20;;;9.90;99.90;;;;;;4997167;28;20471;-82
2022/09/18 02:17:56;;;;;;;3.40;0.50;;;9.90;99.90;;;;;;4995385;28;20485;-83
2022/09/18 02:20:27;;;;;;;3.10;0.20;;;9.90;99.90;;;;;;5003376;28;20432;-86
2022/09/18 02:22:56;;;;;;;4.83;0.83;;;9.90;99.90;;;;;;4995871;28;20432;-83
2022/09/18 02:25:58;;;;;;;5.50;0.60;;;9.90;99.90;;;;;;4996582;28;20966;-83
2022/09/18 02:28:26;;;;;;;3.23;0.47;;;9.80;99.90;;;;;;4991166;28;20530;-84
2022/09/18 02:30:52;;;;;;;2.67;0.20;;;9.90;99.90;;;;;;4979144;28;20416;-87
2022/09/18 02:33:28;;;;;;;6.07;0.60;;;9.80;99.90;;;;;;4996693;28;20470;-87
2022/09/18 02:36:07;;;;;;;3.20;0.50;;;9.80;99.90;;;;;;4996471;28;20188;-82
2022/09/18 02:39:09;;;;;;;1.97;0.40;;;9.70;99.90;;;;;;4996669;28;20416;-82
2022/09/18 02:41:56;;;;;;;6.73;0.67;;;9.60;99.90;;;;;;4996337;28;20919;-89
2022/09/18 02:44:44;;;;;;;5.27;0.40;;;9.60;99.90;;;;;;4996608;28;20424;-82
2022/09/18 02:47:30;;;;;;;4.47;0.50;;;9.70;99.90;;;;;;5011951;28;20509;-82
2022/09/18 02:50:11;;;;;;;3.37;0.73;;;9.70;99.90;;;;;;5011381;28;20428;-82
2022/09/18 02:52:51;;;;;;;1.50;0.30;;;9.80;99.90;;;;;;4995009;28;20420;-83
2022/09/18 02:55:22;;;;;;;5.00;0.50;;;9.80;99.90;;;;;;4996005;28;20523;-89
2022/09/18 02:57:55;;;;;;;3.83;0.23;;;9.90;99.90;;;;;;4996552;28;20822;-85
2022/09/18 03:00:21;;;;;;;4.70;0.27;;;9.90;99.90;;;;;;4995942;28;20950;-84
2022/09/18 03:02:49;;;;;;;3.10;0.30;;;10.00;99.90;;;;;;4996151;28;20419;-83
2022/09/18 03:05:14;;;;;;;7.40;0.77;;;10.00;99.90;;;;;;4996061;28;20455;-86
2022/09/18 03:07:46;;;;;;;6.10;0.40;;;10.00;99.90;;;;;;4995962;28;20432;-90
2022/09/18 03:10:11;;;;;;;8.50;0.53;;;10.00;99.90;;;;;;4996192;28;20179;-83
2022/09/18 03:12:37;;;;;;;5.33;0.30;;;10.10;99.90;;;;;;5015775;28;20981;-90
2022/09/18 03:15:04;;;;;;;4.50;0.30;;;10.10;99.90;;;;;;5015918;28;20175;-83
2022/09/18 03:17:29;;;;;;;2.50;0.20;;;10.00;99.90;;;;;;5015679;28;20163;-92
2022/09/18 03:19:58;;;;;;;2.50;0.20;;;10.00;99.90;;;;;;5013627;28;21034;-91
2022/09/18 03:22:23;;;;;;;4.73;0.50;;;9.90;99.90;;;;;;5016306;28;20605;-91
2022/09/18 03:24:49;;;;;;;2.87;0.20;;;9.90;99.90;;;;;;5015672;28;20415;-92
2022/09/18 03:27:16;;;;;;;3.13;0.33;;;9.90;99.90;;;;;;5015474;28;20532;-84
2022/09/18 03:29:44;;;;;;;3.90;0.30;;;10.00;99.90;;;;;;5016178;28;20322;-87
2022/09/18 03:32:09;;;;;;;2.73;0.40;;;10.00;99.90;;;;;;5016134;28;20505;-83
2022/09/18 03:34:35;;;;;;;1.97;0.20;;;10.10;99.90;;;;;;5015873;28;20443;-90
2022/09/18 03:37:00;;;;;;;2.50;0.50;;;10.10;99.90;;;;;;5016221;28;20175;-90
2022/09/18 03:39:26;;;;;;;3.73;0.50;;;10.10;99.90;;;;;;5016325;28;20180;-91
2022/09/18 03:41:51;;;;;;;5.77;0.30;;;10.10;99.90;;;;;;5017062;28;20668;-89
2022/09/18 03:44:17;;;;;;;2.43;0.30;;;10.20;99.90;;;;;;5015739;28;20267;-89
2022/09/18 03:46:42;;;;;;;3.40;0.20;;;10.10;99.90;;;;;;5014864;28;20207;-90
2022/09/18 03:49:08;;;;;;;3.00;0.30;;;10.00;99.90;;;;;;5014073;28;20185;-88
2022/09/18 03:51:39;;;;;;;4.80;0.20;;;9.90;99.90;;;;;;5014741;28;20259;-85
2022/09/18 03:54:05;;;;;;;3.90;0.27;;;10.00;99.90;;;;;;5014478;28;20211;-87
2022/09/18 03:56:30;;;;;;;1.20;0.30;;;9.90;99.90;;;;;;5013032;28;20439;-87
2022/09/18 03:58:59;;;;;;;1.73;0.40;;;9.80;99.90;;;;;;5013572;28;20203;-87
2022/09/18 04:01:25;;;;;;;1.63;0.20;;;9.80;99.90;;;;;;5014828;28;20218;-83
2022/09/18 04:03:50;;;;;;;1.10;0.20;;;9.70;99.90;;;;;;5014655;28;20419;-84
2022/09/18 04:06:16;;;;;;;10.80;0.73;;;9.60;99.90;;;;;;5013980;28;20218;-84
2022/09/18 04:08:41;;;;;;;2.67;0.23;;;9.60;99.90;;;;;;5014911;28;20249;-89
2022/09/18 04:11:07;;;;;;;3.87;0.50;;;9.60;99.90;;;;;;5013533;28;20202;-83
2022/09/18 04:13:33;;;;;;;2.07;0.20;;;9.50;99.90;;;;;;5014567;28;20202;-84
2022/09/18 04:16:00;;;;;;;3.20;0.20;;;9.50;99.90;;;;;;5014135;28;20204;-86
2022/09/18 04:18:25;;;;;;;2.87;0.40;;;9.50;99.90;;;;;;5014385;28;20422;-84
2022/09/18 04:20:51;;;;;;;0.93;0.20;;;9.50;99.90;;;;;;5014186;28;20718;-85
2022/09/18 04:23:17;;;;;;;2.10;0.40;;;9.50;99.90;;;;;;5014352;28;20202;-86
2022/09/18 04:25:43;;;;;;;4.07;0.40;;;9.50;99.90;;;;;;5015115;28;20209;-88
2022/09/18 04:28:09;;;;;;;4.80;0.10;;;9.50;99.90;;;;;;5014824;28;20418;-89
2022/09/18 04:30:36;;;;;;;1.33;0.30;;;9.50;99.90;;;;;;5014599;28;20413;-89
2022/09/18 04:33:02;;;;;;;3.90;0.20;;;9.50;99.90;;;;;;5012418;28;20515;-88
2022/09/18 04:35:28;;;;;;;3.17;0.73;;;9.50;99.90;;;;;;5013570;28;20913;-84
2022/09/18 04:37:54;;;;;;;1.37;0.20;;;9.50;99.90;;;;;;5013734;28;20417;-89
2022/09/18 04:40:22;;;;;;;1.80;0.20;;;9.40;99.90;;;;;;5012766;28;20182;-87
2022/09/18 04:42:48;;;;;;;0.67;0.33;;;9.40;99.90;;;;;;5013692;28;20188;-83
2022/09/18 04:45:13;;;;;;;3.30;0.20;;;9.50;99.90;;;;;;5012158;28;20449;-87
2022/09/18 04:47:40;;;;;;;3.50;0.53;;;9.50;99.90;;;;;;5013527;28;20176;-84
2022/09/18 04:50:07;;;;;;;1.83;0.30;;;9.60;99.90;;;;;;5013328;28;20655;-85
2022/09/18 04:52:33;;;;;;;2.20;0.20;;;9.60;99.90;;;;;;5012329;28;20435;-82
2022/09/18 04:54:59;;;;;;;2.87;0.43;;;9.50;99.90;;;;;;5013164;28;20977;-83
2022/09/18 04:57:24;;;;;;;5.37;0.33;;;9.40;99.90;;;;;;5013404;28;20440;-83
2022/09/18 04:59:50;;;;;;;1.27;0.20;;;9.40;99.90;;;;;;5013245;28;20180;-83
2022/09/18 05:02:17;;;;;;;3.67;0.20;;;9.40;99.90;;;;;;5013185;28;20175;-81
2022/09/18 05:04:43;;;;;;;1.60;0.30;;;9.30;99.90;;;;;;5012895;28;20172;-84
2022/09/18 05:07:08;;;;;;;1.17;0.30;;;9.30;99.90;;;;;;5011686;28;20523;-82
2022/09/18 05:09:35;;;;;;;6.43;0.70;;;9.30;99.90;;;;;;5011642;28;20174;-83
2022/09/18 05:12:03;;;;;;;1.33;0.40;;;9.30;99.90;;;;;;5013138;28;20164;-85
2022/09/18 05:14:28;;;;;;;5.60;0.80;;;9.20;99.90;;;;;;5011881;28;20418;-86
2022/09/18 05:16:55;;;;;;;2.07;0.87;;;9.20;99.90;;;;;;5013179;28;20779;-84
2022/09/18 05:19:21;;;;;;;5.20;0.80;;;9.20;99.90;;;;;;5012672;28;20170;-83
2022/09/18 05:21:50;;;;;;;6.30;0.30;;;9.20;99.90;;;;;;5013403;28;20422;-84
2022/09/18 05:24:16;;;;;;;3.03;0.20;;;9.30;99.90;;;;;;5013036;28;20412;-86
2022/09/18 05:26:45;;;;;;;1.73;0.30;;;9.30;99.90;;;;;;5013079;28;20472;-84
2022/09/18 05:29:10;;;;;;;3.97;0.30;;;9.40;99.90;;;;;;5013082;28;20744;-84
2022/09/18 05:31:36;;;;;;;2.33;0.30;;;9.60;99.90;;;;;;5013111;28;20473;-84
2022/09/18 05:34:02;;;;;;;3.70;0.40;;;9.60;99.90;;;;;;5012774;28;20206;-83
2022/09/18 05:36:27;;;;;;;0.87;0.20;;;9.60;99.90;;;;;;5012976;28;20210;-83
2022/09/18 05:38:53;;;;;;;0.90;0.30;;;9.60;99.90;;;;;;5012846;28;20180;-83
2022/09/18 05:41:18;;;;;;;2.73;0.33;;;9.70;99.90;;;;;;5012437;28;20584;-82
2022/09/18 05:43:44;;;;;;;4.20;0.40;;;9.70;99.90;;;;;;5013716;28;20183;-82
2022/09/18 05:46:10;;;;;;;2.13;0.37;;;9.70;99.90;;;;;;5016288;28;20227;-81
2022/09/18 05:48:36;;;;;;;0.50;0.20;;;9.70;99.90;;;;;;5016326;28;20654;-84
2022/09/18 05:51:01;;;;;;;6.20;0.33;;;9.60;99.90;;;;;;5016761;28;20422;-82
2022/09/18 05:53:27;;;;;;;1.60;0.50;;;9.60;99.90;;;;;;5016677;28;20186;-81
2022/09/18 05:55:52;;;;;;;2.60;0.43;;;9.70;99.90;;;;;;5016293;28;20227;-83
2022/09/18 05:58:19;;;;;;;4.30;0.27;;;9.80;99.90;;;;;;5015200;28;20207;-83
2022/09/18 06:00:45;;;;;;;2.80;0.40;;;9.70;99.90;;;;;;5010227;28;20316;-81
2022/09/18 06:03:13;;;;;;;1.77;0.60;;;9.70;99.90;;;;;;5004803;28;20434;-82
2022/09/18 06:05:38;;;;;;;1.90;0.63;;;9.70;99.90;;;;;;5005098;28;20470;-80
2022/09/18 06:08:07;;;;;;;2.93;0.33;;;9.60;99.90;;;;;;5006336;28;20480;-81
2022/09/18 06:10:36;;;;;;;1.13;0.30;;;9.70;99.90;;;;;;5004767;28;20857;-85
2022/09/18 06:13:17;;;;;;;5.10;0.50;;;9.80;99.90;;;;;;5003684;28;20948;-82
2022/09/18 06:15:44;;;;;;;6.87;0.30;;;9.80;99.90;;;;;;5006034;28;20777;-80
2022/09/18 06:18:13;;;;;;;4.10;0.20;;;9.80;99.90;;;;;;5004277;28;20411;-82
2022/09/18 06:20:40;;;;;;;1.90;0.20;;;9.90;99.90;;;;;;5015365;28;20428;-82
2022/09/18 06:23:06;;;;;;;2.00;0.40;;;9.80;99.90;;;;;;5015809;28;20419;-87
2022/09/18 06:25:31;;;;;;;1.40;0.43;;;9.90;99.90;;;;;;5015635;28;20566;-82
2022/09/18 06:27:59;;;;;;;1.03;0.63;;;9.90;99.90;;;;;;5015458;28;20202;-82
2022/09/18 06:30:30;;;;;;;2.27;0.50;;;9.90;99.90;;;;;;5015371;28;20552;-82
2022/09/18 06:33:06;;;;;;;3.07;0.30;;;10.00;99.90;;;;;;5015445;28;20417;-81
2022/09/18 06:35:33;;;;;;;3.80;0.43;;;9.90;99.90;;;;;;5015154;28;20444;-83
2022/09/18 06:38:03;;;;;;;5.40;0.40;;;9.90;99.90;;;;;;5015273;28;20508;-83
2022/09/18 06:40:32;;;;;;;1.47;0.20;;;10.20;99.90;;;;;;5014703;28;20429;-82
2022/09/18 06:43:00;;;;;;;5.17;0.70;;;10.30;99.90;;;;;;5015489;28;20424;-82
2022/09/18 06:45:26;;;;;;;1.23;0.20;;;10.20;99.90;;;;;;5015179;28;20524;-83
2022/09/18 06:47:53;;;;;;;3.07;0.33;;;10.10;99.90;;;;;;5015202;28;20505;-83
2022/09/18 06:50:20;;;;;;;1.03;0.20;;;10.00;99.90;;;;;;5014714;28;20454;-82
2022/09/18 06:52:47;;;;;;;3.87;0.43;;;10.00;99.90;;;;;;5015181;28;20775;-81
2022/09/18 06:55:13;;;;;;;3.60;0.20;;;10.30;99.90;;;;;;5014197;28;20475;-83
2022/09/18 06:57:39;;;;;;;4.93;0.20;;;;;;;;;;5015085;28;20497;-83
2022/09/18 07:00:06;;;;;;;1.70;0.40;;;13.90;1.00;;;;;;5014916;28;20770;-82
2022/09/18 07:02:32;;;;;;;1.60;0.20;;;12.40;1.00;;;;;;5014551;28;20183;-83
2022/09/18 07:04:57;;;;;;;2.20;0.20;;;13.10;99.90;;;;;;5014415;28;20417;-82
2022/09/18 07:07:23;;;;;;;3.13;0.20;;;15.30;99.90;;;;;;5014827;28;20430;-82
2022/09/18 07:09:49;;;;;;;1.83;0.27;;;16.30;99.90;;;;;;5014798;28;20254;-81
2022/09/18 07:12:14;;;;;;;1.03;0.20;;;16.40;1.00;;;;;;5014678;28;20179;-81
2022/09/18 07:14:40;;;;;;;7.77;0.30;;;17.20;1.00;;;;;;5014655;28;20455;-81
2022/09/18 07:17:08;;;;;;;1.63;0.20;;;17.50;99.90;;;;;;5014613;28;20178;-82
2022/09/18 07:19:34;;;;;;;2.30;0.37;;;16.10;1.00;;;;;;5014292;28;20557;-82
2022/09/18 07:21:59;;;;;;;2.00;0.20;;;14.70;1.00;;;;;;5014544;28;20421;-82
2022/09/18 07:24:25;;;;;;;3.90;0.40;;;13.70;1.00;;;;;;5014391;28;20284;-81
2022/09/18 07:26:50;;;;;;;1.67;0.30;;;14.60;99.90;;;;;;5014337;28;20214;-80
2022/09/18 07:29:16;;;;;;;3.57;0.20;;;13.00;16.20;;;;;;5014426;28;20705;-79
2022/09/18 07:31:41;;;;;;;1.10;0.20;;;12.10;99.90;;;;;;5014235;28;20355;-84
2022/09/18 07:34:08;;;;;;;0.97;0.40;;;11.50;99.90;;;;;;5013865;28;20222;-82
2022/09/18 07:36:33;;;;;;;1.33;0.20;;;11.70;99.90;;;;;;5014387;28;20183;-83
2022/09/18 07:38:59;;;;;;;3.83;0.27;;;13.30;99.90;;;;;;5014238;28;20423;-82
2022/09/18 07:41:24;;;;;;;4.03;0.20;;;13.80;1.00;;;;;;5014213;28;20278;-83
2022/09/18 07:43:50;;;;;;;1.57;0.40;;;12.50;3.20;;;;;;5014299;28;20204;-84
2022/09/18 07:46:15;;;;;;;1.90;0.23;;;12.70;99.90;;;;;;5013871;28;20215;-81
2022/09/18 07:48:41;;;;;;;1.40;0.47;;;14.20;1.00;;;;;;5013691;28;20181;-82
2022/09/18 07:51:07;;;;;;;1.80;0.37;;;16.40;1.00;;;;;;5014000;28;20223;-81
2022/09/18 07:53:32;;;;;;;1.13;0.33;;;14.60;99.90;;;;;;5013814;28;20197;-80
2022/09/18 07:55:58;;;;;;;1.43;0.37;;;13.40;1.00;;;;;;5013945;28;20518;-83
2022/09/18 07:58:24;;;;;;;2.53;0.20;;;14.70;1.00;;;;;;5013804;28;20600;-81
2022/09/18 08:00:50;;;;;;;3.53;0.77;;;17.40;1.00;;;;;;5013809;28;20175;-86
2022/09/18 08:03:17;;;;;;;4.23;0.60;;;18.70;99.90;;;;;;5013328;28;20638;-83
2022/09/18 08:05:42;;;;;;;1.60;0.20;;;19.30;99.90;;;;;;5012051;28;20471;-80
2022/09/18 08:08:11;;;;;;;1.67;0.40;;;18.10;99.90;;;;;;5013198;28;20412;-80
2022/09/18 08:10:38;;;;;;;1.93;0.20;;;15.40;1.00;;;;;;5013687;28;20177;-84
2022/09/18 08:13:03;;;;;;;3.30;0.50;;;14.00;99.90;;;;;;5013606;28;20455;-83
2022/09/18 08:15:30;;;;;;;3.17;0.40;;;13.60;1.00;;;;;;5013601;28;20475;-83
2022/09/18 08:17:56;;;;;;;3.00;0.60;;;15.90;99.90;;;;;;5013534;28;20171;-83
2022/09/18 08:20:22;;;;;;;1.00;0.20;;;14.40;61.20;;;;;;5011827;28;20786;-81
2022/09/18 08:22:47;;;;;;;3.77;0.50;;;13.60;1.00;;;;;;5013398;28;20185;-81
2022/09/18 08:25:13;;;;;;;5.40;1.20;;;16.20;99.90;;;;;;5013339;28;20456;-79
2022/09/18 08:27:40;;;;;;;2.37;0.30;;;18.30;99.90;;;;;;5012199;28;20182;-84
2022/09/18 08:30:07;;;;;;;1.83;0.30;;;19.00;99.90;;;;;;5013178;28;20410;-82
2022/09/18 08:32:33;;;;;;;1.47;0.20;;;18.30;99.90;;;;;;5013330;28;20452;-83
2022/09/18 08:35:01;;;;;;;0.90;0.10;;;15.30;99.90;;;;;;5012982;28;20477;-84
2022/09/18 08:37:28;;;;;;;3.30;0.27;;;13.90;1.00;;;;;;5013341;28;20175;-80
2022/09/18 08:39:53;;;;;;;3.60;0.30;;;12.90;99.90;;;;;;5013323;28;20472;-80
2022/09/18 08:42:41;;;;;;;1.80;0.20;;;12.50;99.90;;;;;;5013054;28;21066;-83
2022/09/18 08:45:16;;;;;;;2.60;0.50;;;12.30;99.90;;;;;;5012944;28;21031;-82
2022/09/18 08:47:59;;;;;;;5.80;0.60;;;12.10;99.90;;;;;;5012886;28;20453;-84
2022/09/18 08:50:29;;;;;;;2.30;0.53;;;12.80;99.90;;;;;;5012597;28;20420;-83
2022/09/18 08:53:18;;;;;;;2.93;0.40;;;15.00;1.00;;;;;;5011631;28;20931;-83
2022/09/18 08:55:46;;;;;;;4.23;0.50;;;13.70;1.00;;;;;;5012648;28;20463;-82
2022/09/18 08:58:15;;;;;;;5.20;0.20;;;13.00;99.90;;;;;;5012836;28;20478;-82
2022/09/18 09:00:44;;;;;;;1.00;0.30;;;13.00;99.90;;;;;;5012866;28;20396;-82
2022/09/18 09:03:27;;;;;;;4.67;0.83;;;15.60;1.00;;;;;;5012553;28;20423;-84
2022/09/18 09:06:15;;;;;;;1.40;0.43;;;18.60;1.00;;;;;;5012821;28;20549;-82
2022/09/18 09:09:11;;;;;;;3.97;0.30;;;17.80;1.00;;;;;;5012682;28;20924;-82
2022/09/18 09:11:47;;;;;;;1.90;0.33;;;17.10;99.90;;;;;;5012788;28;20424;-85
2022/09/18 09:14:23;;;;;;;4.00;0.53;;;19.60;99.90;;;;;;5012699;28;20436;-80
2022/09/18 09:16:54;;;;;;;0.80;0.20;;;19.00;99.90;;;;;;5011527;28;20449;-80
2022/09/18 09:19:27;;;;;;;4.53;0.40;;;16.20;99.90;;;;;;5018653;28;20415;-84
2022/09/18 09:22:07;;;;;;;1.90;0.80;;;14.60;99.90;;;;;;5017977;28;20524;-84
2022/09/18 09:24:48;;;;;;;1.90;0.30;;;13.80;1.00;;;;;;5019109;28;20413;-81
2022/09/18 09:27:26;;;;;;;1.13;0.20;;;12.70;99.90;;;;;;5019094;28;20510;-81
2022/09/18 09:30:00;;;;;;;1.80;0.20;;;11.90;99.90;;;;;;5019033;28;20483;-82
2022/09/18 09:33:17;;;;;;;3.67;0.20;;;11.40;99.90;;;;;;5019196;28;20422;-82
2022/09/18 09:35:49;;;;;;;0.63;0.40;;;11.20;99.90;;;;;;4993532;28;20425;-82
2022/09/18 09:38:40;;;;;;;2.70;0.20;;;11.50;99.90;;;;;;5019033;28;20417;-82
2022/09/18 09:41:28;;;;;;;1.70;0.30;;;12.80;99.90;;;;;;5019012;28;20521;-84
2022/09/18 09:44:12;;;;;;;1.83;0.20;;;14.80;1.00;;;;;;5018704;28;20466;-81
2022/09/18 09:46:49;;;;;;;1.80;0.50;;;15.20;1.00;;;;;;5017443;28;20922;-81
2022/09/18 09:49:24;;;;;;;2.10;0.20;;;16.60;99.90;;;;;;5018518;28;20440;-82
2022/09/18 09:52:02;;;;;;;3.20;0.10;;;17.90;99.90;;;;;;5017813;28;21082;-82
2022/09/18 09:54:29;;;;;;;1.07;0.30;;;15.80;99.90;;;;;;5018746;28;20819;-85
2022/09/18 09:57:13;;;;;;;1.40;0.20;;;17.00;99.90;;;;;;5018942;28;20428;-83
2022/09/18 09:59:58;;;;;;;4.63;0.30;;;16.60;99.90;;;;;;5018768;28;20427;-83
2022/09/18 10:02:42;;;;;;;1.43;0.20;;;15.20;1.00;;;;;;5018683;28;20506;-81
2022/09/18 10:05:39;;;;;;;0.90;0.20;;;14.10;1.00;;;;;;5018375;28;20434;-86
2022/09/18 10:08:24;;;;;;;1.00;0.20;;;13.40;1.00;;;;;;5018856;28;20424;-82
2022/09/18 10:11:01;;;;;;;1.23;0.20;;;12.80;34.00;;;;;;5018791;28;20491;-81
2022/09/18 10:13:28;;;;;;;1.47;0.63;;;12.50;99.90;;;;;;5018700;28;20423;-81
2022/09/18 10:16:09;;;;;;;2.40;0.23;;;12.40;99.90;;;;;;5017459;28;20456;-81
2022/09/18 10:18:40;;;;;;;2.93;0.47;;;12.20;99.90;;;;;;5018421;28;20407;-81
2022/09/18 10:21:13;;;;;;;2.20;0.33;;;12.10;99.90;;;;;;5017351;28;20458;-81
2022/09/18 10:23:41;;;;;;;1.50;0.30;;;11.90;99.90;;;;;;5018648;28;20438;-81
2022/09/18 10:26:25;;;;;;;2.50;0.20;;;11.90;99.90;;;;;;5018555;28;20504;-81
2022/09/18 10:28:50;;;;;;;3.57;0.83;;;11.80;99.90;;;;;;5017619;28;20414;-80
2022/09/18 10:31:16;;;;;;;1.83;0.30;;;12.00;99.90;;;;;;5015275;28;20436;-81
2022/09/18 10:33:46;;;;;;;0.90;0.20;;;12.60;99.90;;;;;;5015196;28;20182;-81
2022/09/18 10:36:27;;;;;;;0.90;0.20;;;13.20;99.90;;;;;;5015538;28;20470;-81
2022/09/18 10:38:52;;;;;;;2.50;0.37;;;15.00;1.00;;;;;;5015418;28;20821;-81
2022/09/18 10:41:31;;;;;;;1.63;0.20;;;14.20;99.90;;;;;;5015358;28;20423;-82
2022/09/18 10:44:17;;;;;;;2.53;0.60;;;16.70;1.00;;;;;;5015140;28;20535;-82
2022/09/18 10:47:07;;;;;;;1.50;0.37;;;17.70;99.90;;;;;;5014641;28;20841;-82
2022/09/18 10:49:39;;;;;;;2.60;0.20;;;18.50;99.90;;;;;;5014834;28;20401;-82
2022/09/18 10:52:27;;;;;;;1.40;0.50;;;18.30;99.90;;;;;;5014947;28;20439;-80
2022/09/18 10:55:04;;;;;;;3.27;0.40;;;18.00;1.00;;;;;;5014681;28;20450;-81
2022/09/18 10:57:39;;;;;;;1.57;0.40;;;17.40;1.00;;;;;;5014874;28;20428;-80
2022/09/18 11:00:25;;;;;;;3.17;0.30;;;16.30;1.00;;;;;;5013706;28;21086;-83
2022/09/18 11:02:56;;;;;;;2.10;0.20;;;15.10;99.90;;;;;;5014482;28;20425;-81
2022/09/18 11:05:29;;;;;;;5.70;0.30;;;14.50;99.90;;;;;;5014773;28;20796;-81
2022/09/18 11:07:57;;;;;;;3.50;0.57;;;14.00;1.00;;;;;;5014798;28;20428;-82
2022/09/18 11:10:25;;;;;;;1.57;0.20;;;14.00;26.80;;;;;;5014585;28;20405;-82
2022/09/18 11:12:53;;;;;;;0.80;0.37;;;14.20;1.00;;;;;;5014701;28;20973;-81
2022/09/18 11:15:26;;;;;;;1.73;0.47;;;15.00;99.90;;;;;;5014738;28;20599;-84
2022/09/18 11:17:55;;;;;;;0.70;0.20;;;17.50;99.90;;;;;;5014314;28;20409;-82
2022/09/18 11:20:28;;;;;;;1.37;0.40;;;18.60;1.00;;;;;;5014510;28;20421;-82
2022/09/18 11:23:32;;;;;;;1.83;0.43;;;18.90;99.90;;;;;;5014552;28;20418;-79
2022/09/18 11:26:19;;;;;;;2.60;0.30;;;19.70;99.90;;;;;;5013761;28;20865;-81
2022/09/18 11:28:57;;;;;;;0.73;0.20;;;19.80;99.90;;;;;;5013074;28;20779;-81
2022/09/18 11:31:24;;;;;;;2.40;0.60;;;19.90;99.90;;;;;;5014239;28;20476;-81
2022/09/18 11:33:53;;;;;;;2.60;0.30;;;19.80;99.90;;;;;;5014053;28;20480;-81
2022/09/18 11:36:28;;;;;;;3.17;0.40;;;20.10;99.90;;;;;;5014330;28;20448;-81
2022/09/18 11:38:57;;;;;;;3.73;0.40;;;20.00;99.90;;;;;;5014219;28;20956;-81
2022/09/18 11:41:29;;;;;;;1.30;0.40;;;19.60;97.00;;;;;;5012561;28;20848;-83
2022/09/18 11:43:58;;;;;;;2.77;0.20;;;20.10;99.90;;;;;;5048706;22;20478;-80
2022/09/18 11:46:30;;;;;;;1.00;0.20;;;19.70;86.70;;;;;;5015517;28;20996;-83
2022/09/18 11:49:01;;;;;;;1.07;0.30;;;19.60;66.00;;;;;;5031801;28;20452;-84
2022/09/18 11:51:48;;;;;;;1.13;0.20;;;19.90;76.80;;;;;;5033736;28;20480;-84
2022/09/18 11:54:36;;;;;;;0.83;0.30;;;19.80;48.10;;;;;;5033722;28;20447;-83
2022/09/18 11:57:09;;;;;;;0.80;0.30;;;19.50;62.50;;;;;;5033619;28;20417;-83
2022/09/18 11:59:53;;;;;;;1.57;0.40;;;19.70;53.00;;;;;;5033970;28;20417;-83
2022/09/18 12:02:50;;;;;;;1.87;0.40;;;18.80;28.10;;;;;;5033082;28;20428;-84
2022/09/18 12:05:21;;;;;;;0.70;0.20;;;18.80;60.60;;;;;;5030583;28;20483;-80
2022/09/18 12:08:17;;;;;;;3.40;0.80;;;18.10;41.20;;;;;;5008744;28;20446;-80
2022/09/18 12:11:06;;;;;;;1.63;0.30;;;18.20;44.10;;;;;;4994065;28;20415;-80
2022/09/18 12:13:45;;;;;;;1.93;0.70;;;19.10;48.60;;;;;;4993930;28;20767;-81
2022/09/18 12:16:37;;;;;;;0.60;0.20;;;17.70;36.80;;;;;;4993834;28;20445;-80
2022/09/18 12:19:35;;;;;;;1.63;0.20;;;16.80;68.10;;;;;;4993740;28;20957;-81
2022/09/18 12:22:12;;;;;;;1.47;0.30;;;15.60;99.90;;;;;;4983758;28;20446;-80
2022/09/18 12:24:38;;;;;;;2.10;0.20;;;15.30;99.90;;;;;;4993877;28;20418;-81
2022/09/18 12:27:34;;;;;;;3.40;0.30;;;15.10;1.00;;;;;;4993730;28;20470;-81
2022/09/18 12:30:17;;;;;;;4.67;0.30;;;15.70;1.00;;;;;;4993657;28;20163;-83
2022/09/18 12:33:01;;;;;;;2.30;0.20;;;17.20;99.90;;;;;;4993441;28;20425;-81
2022/09/18 12:35:52;;;;;;;1.13;0.20;;;17.50;99.90;;;;;;4993079;28;20417;-84
2022/09/18 12:38:40;;;;;;;1.10;0.20;;;17.60;99.90;;;;;;4993265;28;20405;-81
2022/09/18 12:41:31;;;;;;;0.80;0.20;;;18.10;99.90;;;;;;4993613;28;20430;-81
2022/09/18 12:44:07;;;;;;;2.43;0.47;;;18.20;99.90;;;;;;4993424;28;20458;-83
2022/09/18 12:46:49;;;;;;;2.30;0.53;;;19.00;90.50;;;;;;4993309;28;20473;-81
2022/09/18 12:49:40;;;;;;;2.40;0.73;;;19.40;86.10;;;;;;4993079;28;20410;-81
2022/09/18 12:52:36;;;;;;;1.73;0.23;;;18.30;99.90;;;;;;5019282;28;20421;-80
2022/09/18 12:55:44;;;;;;;2.33;0.67;;;16.90;99.90;;;;;;5032917;28;20500;-82
2022/09/18 12:58:37;;;;;;;2.40;0.30;;;16.00;1.00;;;;;;5033020;28;20416;-80
2022/09/18 13:01:13;;;;;;;1.50;0.20;;;15.10;1.00;;;;;;5028947;28;20418;-80
2022/09/18 13:03:41;;;;;;;1.53;0.30;;;15.00;1.00;;;;;;5030978;28;20433;-80
2022/09/18 13:06:12;;;;;;;1.37;0.30;;;15.60;99.90;;;;;;5032477;28;20500;-79
2022/09/18 13:08:48;;;;;;;3.43;0.47;;;15.80;99.90;;;;;;5032605;28;20460;-80
2022/09/18 13:11:43;;;;;;;4.13;0.40;;;15.40;99.90;;;;;;5032446;28;20473;-81
2022/09/18 13:14:17;;;;;;;2.13;0.30;;;15.30;99.90;;;;;;5026194;28;20424;-81
2022/09/18 13:16:49;;;;;;;1.03;0.20;;;14.80;98.80;;;;;;5032456;28;20432;-80